sensor_id;sensor_type;location;lat;lon;timestamp;P1;durP1;ratioP1;P2;durP2;ratioP2
16099;SDS011;8154;50.830;12.082;2023-04-26T00:00:45;0.95;;;0.95;;
16099;SDS011;8154;50.830;12.082;2023-04-26T00:03:11;1.00;;;1.00;;
16099;SDS011;8154;50.830;12.082;2023-04-26T00:05:40;0.90;;;0.90;;
16099;SDS011;8154;50.830;12.082;2023-04-26T00:08:07;1.00;;;1.00;;
16099;SDS011;8154;50.830;12.082;2023-04-26T00:10:33;1.00;;;1.00;;
16099;SDS011;8154;50.830;12.082;2023-04-26T00:13:00;0.93;;;0.93;;
16099;SDS011;8154;50.830;12.082;2023-04-26T00:15:26;0.98;;;0.98;;
16099;SDS011;8154;50.830;12.082;2023-04-26T00:17:52;1.00;;;1.00;;
16099;SDS011;8154;50.830;12.082;2023-04-26T00:20:18;1.20;;;1.10;;
16099;SDS011;8154;50.830;12.082;2023-04-26T00:22:44;1.00;;;1.00;;
16099;SDS011;8154;50.830;12.082;2023-04-26T00:25:11;1.00;;;1.00;;
16099;SDS011;8154;50.830;12.082;2023-04-26T00:27:37;0.90;;;0.90;;
16099;SDS011;8154;50.830;12.082;2023-04-26T00:30:03;0.95;;;0.95;;
16099;SDS011;8154;50.830;12.082;2023-04-26T00:32:30;0.90;;;0.90;;
16099;SDS011;8154;50.830;12.082;2023-04-26T00:34:56;0.90;;;0.90;;
16099;SDS011;8154;50.830;12.082;2023-04-26T00:37:22;0.90;;;0.90;;
16099;SDS011;8154;50.830;12.082;2023-04-26T00:39:49;0.90;;;0.90;;
16099;SDS011;8154;50.830;12.082;2023-04-26T00:42:15;1.00;;;1.00;;
16099;SDS011;8154;50.830;12.082;2023-04-26T00:44:41;1.00;;;1.00;;
16099;SDS011;8154;50.830;12.082;2023-04-26T00:47:07;1.00;;;1.00;;
16099;SDS011;8154;50.830;12.082;2023-04-26T00:49:34;1.00;;;1.00;;
16099;SDS011;8154;50.830;12.082;2023-04-26T00:52:00;0.80;;;0.80;;
16099;SDS011;8154;50.830;12.082;2023-04-26T00:54:27;0.80;;;0.80;;
16099;SDS011;8154;50.830;12.082;2023-04-26T00:56:53;0.90;;;0.90;;
16099;SDS011;8154;50.830;12.082;2023-04-26T00:59:20;0.90;;;0.90;;
16099;SDS011;8154;50.830;12.082;2023-04-26T01:01:46;0.88;;;0.88;;
16099;SDS011;8154;50.830;12.082;2023-04-26T01:04:13;1.10;;;1.00;;
16099;SDS011;8154;50.830;12.082;2023-04-26T01:06:39;0.90;;;0.90;;
16099;SDS011;8154;50.830;12.082;2023-04-26T01:09:06;1.00;;;1.00;;
16099;SDS011;8154;50.830;12.082;2023-04-26T01:11:34;0.90;;;0.90;;
16099;SDS011;8154;50.830;12.082;2023-04-26T01:14:02;0.90;;;0.90;;
16099;SDS011;8154;50.830;12.082;2023-04-26T01:16:29;0.90;;;0.90;;
16099;SDS011;8154;50.830;12.082;2023-04-26T01:18:56;0.90;;;0.90;;
16099;SDS011;8154;50.830;12.082;2023-04-26T01:21:22;0.80;;;0.80;;
16099;SDS011;8154;50.830;12.082;2023-04-26T01:23:49;0.90;;;0.90;;
16099;SDS011;8154;50.830;12.082;2023-04-26T01:26:16;0.90;;;0.90;;
16099;SDS011;8154;50.830;12.082;2023-04-26T01:28:43;0.82;;;0.82;;
16099;SDS011;8154;50.830;12.082;2023-04-26T01:31:14;1.00;;;1.00;;
16099;SDS011;8154;50.830;12.082;2023-04-26T01:33:41;0.80;;;0.80;;
16099;SDS011;8154;50.830;12.082;2023-04-26T01:36:09;0.90;;;0.90;;
16099;SDS011;8154;50.830;12.082;2023-04-26T03:13:39;0.93;;;0.90;;
16099;SDS011;8154;50.830;12.082;2023-04-26T03:16:05;0.73;;;0.73;;
16099;SDS011;8154;50.830;12.082;2023-04-26T03:18:31;0.70;;;0.70;;
16099;SDS011;8154;50.830;12.082;2023-04-26T03:20:58;0.77;;;0.77;;
16099;SDS011;8154;50.830;12.082;2023-04-26T03:23:24;0.70;;;0.70;;
16099;SDS011;8154;50.830;12.082;2023-04-26T03:25:50;0.70;;;0.70;;
16099;SDS011;8154;50.830;12.082;2023-04-26T03:28:16;0.70;;;0.70;;
16099;SDS011;8154;50.830;12.082;2023-04-26T03:30:42;0.73;;;0.73;;
16099;SDS011;8154;50.830;12.082;2023-04-26T03:33:09;0.70;;;0.70;;
16099;SDS011;8154;50.830;12.082;2023-04-26T03:38:26;0.80;;;0.80;;
16099;SDS011;8154;50.830;12.082;2023-04-26T03:40:52;0.70;;;0.70;;
16099;SDS011;8154;50.830;12.082;2023-04-26T03:43:18;0.70;;;0.70;;
16099;SDS011;8154;50.830;12.082;2023-04-26T03:48:33;0.80;;;0.80;;
16099;SDS011;8154;50.830;12.082;2023-04-26T03:51:00;0.80;;;0.80;;
16099;SDS011;8154;50.830;12.082;2023-04-26T03:53:27;0.80;;;0.80;;
16099;SDS011;8154;50.830;12.082;2023-04-26T03:55:53;0.77;;;0.77;;
16099;SDS011;8154;50.830;12.082;2023-04-26T03:58:20;0.80;;;0.80;;
16099;SDS011;8154;50.830;12.082;2023-04-26T04:00:46;0.70;;;0.70;;
16099;SDS011;8154;50.830;12.082;2023-04-26T04:03:12;0.70;;;0.70;;
16099;SDS011;8154;50.830;12.082;2023-04-26T04:05:39;0.80;;;0.80;;
16099;SDS011;8154;50.830;12.082;2023-04-26T04:08:05;0.73;;;0.73;;
16099;SDS011;8154;50.830;12.082;2023-04-26T04:10:31;0.70;;;0.70;;
16099;SDS011;8154;50.830;12.082;2023-04-26T05:17:28;0.80;;;0.80;;
16099;SDS011;8154;50.830;12.082;2023-04-26T05:19:56;0.77;;;0.77;;
16099;SDS011;8154;50.830;12.082;2023-04-26T05:22:23;0.68;;;0.68;;
16099;SDS011;8154;50.830;12.082;2023-04-26T05:24:49;0.80;;;0.80;;
16099;SDS011;8154;50.830;12.082;2023-04-26T05:27:17;0.80;;;0.80;;
16099;SDS011;8154;50.830;12.082;2023-04-26T05:29:43;0.80;;;0.80;;
16099;SDS011;8154;50.830;12.082;2023-04-26T05:32:11;0.80;;;0.80;;
16099;SDS011;8154;50.830;12.082;2023-04-26T05:34:38;0.70;;;0.70;;
16099;SDS011;8154;50.830;12.082;2023-04-26T05:37:04;0.80;;;0.80;;
16099;SDS011;8154;50.830;12.082;2023-04-26T05:39:30;0.80;;;0.80;;
16099;SDS011;8154;50.830;12.082;2023-04-26T05:41:56;0.82;;;0.82;;
16099;SDS011;8154;50.830;12.082;2023-04-26T05:44:22;0.80;;;0.80;;
16099;SDS011;8154;50.830;12.082;2023-04-26T05:46:49;0.80;;;0.80;;
16099;SDS011;8154;50.830;12.082;2023-04-26T05:49:15;0.77;;;0.77;;
16099;SDS011;8154;50.830;12.082;2023-04-26T05:51:41;0.90;;;0.90;;
16099;SDS011;8154;50.830;12.082;2023-04-26T05:54:07;0.82;;;0.82;;
16099;SDS011;8154;50.830;12.082;2023-04-26T05:56:33;0.70;;;0.70;;
16099;SDS011;8154;50.830;12.082;2023-04-26T05:58:59;0.80;;;0.80;;
16099;SDS011;8154;50.830;12.082;2023-04-26T06:01:25;0.80;;;0.80;;
16099;SDS011;8154;50.830;12.082;2023-04-26T06:03:52;0.77;;;0.77;;
16099;SDS011;8154;50.830;12.082;2023-04-26T06:06:19;0.80;;;0.80;;
16099;SDS011;8154;50.830;12.082;2023-04-26T06:08:45;0.70;;;0.70;;
16099;SDS011;8154;50.830;12.082;2023-04-26T06:11:11;0.70;;;0.70;;
16099;SDS011;8154;50.830;12.082;2023-04-26T06:13:37;0.80;;;0.80;;
16099;SDS011;8154;50.830;12.082;2023-04-26T06:16:03;0.70;;;0.70;;
16099;SDS011;8154;50.830;12.082;2023-04-26T06:18:39;0.80;;;0.80;;
16099;SDS011;8154;50.830;12.082;2023-04-26T06:21:05;0.80;;;0.80;;
16099;SDS011;8154;50.830;12.082;2023-04-26T06:23:32;0.70;;;0.70;;
16099;SDS011;8154;50.830;12.082;2023-04-26T06:25:58;0.82;;;0.82;;
16099;SDS011;8154;50.830;12.082;2023-04-26T06:28:25;0.80;;;0.80;;
16099;SDS011;8154;50.830;12.082;2023-04-26T06:30:51;0.80;;;0.80;;
16099;SDS011;8154;50.830;12.082;2023-04-26T06:33:18;0.70;;;0.70;;
16099;SDS011;8154;50.830;12.082;2023-04-26T06:35:44;0.80;;;0.80;;
16099;SDS011;8154;50.830;12.082;2023-04-26T06:38:11;0.80;;;0.80;;
16099;SDS011;8154;50.830;12.082;2023-04-26T06:40:37;0.70;;;0.70;;
16099;SDS011;8154;50.830;12.082;2023-04-26T06:43:03;0.95;;;0.90;;
16099;SDS011;8154;50.830;12.082;2023-04-26T06:45:30;0.80;;;0.80;;
16099;SDS011;8154;50.830;12.082;2023-04-26T06:47:56;0.80;;;0.80;;
16099;SDS011;8154;50.830;12.082;2023-04-26T06:50:25;0.70;;;0.70;;
16099;SDS011;8154;50.830;12.082;2023-04-26T06:52:52;0.77;;;0.77;;
16099;SDS011;8154;50.830;12.082;2023-04-26T06:55:18;0.70;;;0.70;;
16099;SDS011;8154;50.830;12.082;2023-04-26T06:57:45;0.90;;;0.90;;
16099;SDS011;8154;50.830;12.082;2023-04-26T07:00:11;0.80;;;0.80;;
16099;SDS011;8154;50.830;12.082;2023-04-26T07:02:39;0.80;;;0.80;;
16099;SDS011;8154;50.830;12.082;2023-04-26T07:05:05;0.85;;;0.85;;
16099;SDS011;8154;50.830;12.082;2023-04-26T07:07:32;0.80;;;0.80;;
16099;SDS011;8154;50.830;12.082;2023-04-26T07:09:58;0.82;;;0.82;;
16099;SDS011;8154;50.830;12.082;2023-04-26T07:12:25;0.80;;;0.80;;
16099;SDS011;8154;50.830;12.082;2023-04-26T08:16:45;0.80;;;0.80;;
16099;SDS011;8154;50.830;12.082;2023-04-26T08:19:11;0.70;;;0.70;;
16099;SDS011;8154;50.830;12.082;2023-04-26T08:21:37;0.70;;;0.70;;
16099;SDS011;8154;50.830;12.082;2023-04-26T08:24:04;0.70;;;0.70;;
16099;SDS011;8154;50.830;12.082;2023-04-26T08:26:30;0.80;;;0.80;;
16099;SDS011;8154;50.830;12.082;2023-04-26T08:28:56;0.80;;;0.80;;
16099;SDS011;8154;50.830;12.082;2023-04-26T08:31:22;0.80;;;0.70;;
16099;SDS011;8154;50.830;12.082;2023-04-26T08:33:49;0.80;;;0.80;;
16099;SDS011;8154;50.830;12.082;2023-04-26T08:36:15;0.90;;;0.90;;
16099;SDS011;8154;50.830;12.082;2023-04-26T08:38:41;0.70;;;0.70;;
16099;SDS011;8154;50.830;12.082;2023-04-26T08:41:08;0.80;;;0.80;;
16099;SDS011;8154;50.830;12.082;2023-04-26T08:43:42;0.75;;;0.75;;
16099;SDS011;8154;50.830;12.082;2023-04-26T08:46:10;0.80;;;0.80;;
16099;SDS011;8154;50.830;12.082;2023-04-26T08:48:40;0.80;;;0.80;;
16099;SDS011;8154;50.830;12.082;2023-04-26T08:51:07;0.90;;;0.90;;
16099;SDS011;8154;50.830;12.082;2023-04-26T08:53:37;0.80;;;0.80;;
16099;SDS011;8154;50.830;12.082;2023-04-26T08:56:03;0.80;;;0.80;;
16099;SDS011;8154;50.830;12.082;2023-04-26T08:58:31;0.80;;;0.80;;
16099;SDS011;8154;50.830;12.082;2023-04-26T09:00:57;0.70;;;0.70;;
16099;SDS011;8154;50.830;12.082;2023-04-26T09:03:24;0.70;;;0.70;;
16099;SDS011;8154;50.830;12.082;2023-04-26T09:05:50;0.68;;;0.68;;
16099;SDS011;8154;50.830;12.082;2023-04-26T09:08:18;0.77;;;0.77;;
16099;SDS011;8154;50.830;12.082;2023-04-26T09:10:46;0.80;;;0.80;;
16099;SDS011;8154;50.830;12.082;2023-04-26T09:13:12;0.80;;;0.80;;
16099;SDS011;8154;50.830;12.082;2023-04-26T09:15:39;0.80;;;0.80;;
16099;SDS011;8154;50.830;12.082;2023-04-26T09:18:18;0.80;;;0.80;;
16099;SDS011;8154;50.830;12.082;2023-04-26T09:21:00;0.70;;;0.70;;
16099;SDS011;8154;50.830;12.082;2023-04-26T09:23:27;0.85;;;0.75;;
16099;SDS011;8154;50.830;12.082;2023-04-26T09:25:53;0.80;;;0.80;;
16099;SDS011;8154;50.830;12.082;2023-04-26T09:28:21;0.80;;;0.80;;
16099;SDS011;8154;50.830;12.082;2023-04-26T09:30:48;0.70;;;0.70;;
16099;SDS011;8154;50.830;12.082;2023-04-26T09:33:15;1.15;;;0.90;;
16099;SDS011;8154;50.830;12.082;2023-04-26T09:35:42;0.80;;;0.80;;
16099;SDS011;8154;50.830;12.082;2023-04-26T09:38:10;0.80;;;0.80;;
16099;SDS011;8154;50.830;12.082;2023-04-26T09:40:44;0.90;;;0.90;;
16099;SDS011;8154;50.830;12.082;2023-04-26T09:43:16;0.82;;;0.82;;
16099;SDS011;8154;50.830;12.082;2023-04-26T09:45:50;0.88;;;0.88;;
16099;SDS011;8154;50.830;12.082;2023-04-26T09:48:24;0.88;;;0.88;;
16099;SDS011;8154;50.830;12.082;2023-04-26T09:50:53;0.90;;;0.90;;
16099;SDS011;8154;50.830;12.082;2023-04-26T09:53:31;0.85;;;0.85;;
16099;SDS011;8154;50.830;12.082;2023-04-26T09:56:08;0.88;;;0.88;;
16099;SDS011;8154;50.830;12.082;2023-04-26T09:58:37;1.10;;;1.00;;
16099;SDS011;8154;50.830;12.082;2023-04-26T10:01:08;0.90;;;0.90;;
16099;SDS011;8154;50.830;12.082;2023-04-26T10:03:36;1.25;;;1.15;;
16099;SDS011;8154;50.830;12.082;2023-04-26T10:06:03;1.00;;;0.90;;
16099;SDS011;8154;50.830;12.082;2023-04-26T10:08:30;1.00;;;1.00;;
16099;SDS011;8154;50.830;12.082;2023-04-26T10:10:59;1.00;;;1.00;;
16099;SDS011;8154;50.830;12.082;2023-04-26T10:13:31;1.00;;;1.00;;
16099;SDS011;8154;50.830;12.082;2023-04-26T12:19:05;1.45;;;1.35;;
16099;SDS011;8154;50.830;12.082;2023-04-26T12:21:39;1.27;;;1.20;;
16099;SDS011;8154;50.830;12.082;2023-04-26T12:24:20;1.13;;;1.13;;
16099;SDS011;8154;50.830;12.082;2023-04-26T12:26:50;1.40;;;1.30;;
16099;SDS011;8154;50.830;12.082;2023-04-26T12:29:17;1.30;;;1.20;;
16099;SDS011;8154;50.830;12.082;2023-04-26T12:31:43;1.17;;;1.10;;
16099;SDS011;8154;50.830;12.082;2023-04-26T12:34:11;1.13;;;1.13;;
16099;SDS011;8154;50.830;12.082;2023-04-26T12:36:39;1.10;;;1.10;;
16099;SDS011;8154;50.830;12.082;2023-04-26T12:39:08;1.10;;;1.10;;
16099;SDS011;8154;50.830;12.082;2023-04-26T12:41:35;1.25;;;1.20;;
16099;SDS011;8154;50.830;12.082;2023-04-26T12:44:01;1.52;;;1.42;;
16099;SDS011;8154;50.830;12.082;2023-04-26T12:46:27;1.40;;;1.30;;
16099;SDS011;8154;50.830;12.082;2023-04-26T12:48:54;1.40;;;1.30;;
16099;SDS011;8154;50.830;12.082;2023-04-26T12:51:20;1.30;;;1.20;;
16099;SDS011;8154;50.830;12.082;2023-04-26T12:53:47;1.50;;;1.40;;
16099;SDS011;8154;50.830;12.082;2023-04-26T12:56:13;1.48;;;1.38;;
16099;SDS011;8154;50.830;12.082;2023-04-26T12:58:40;1.40;;;1.30;;
16099;SDS011;8154;50.830;12.082;2023-04-26T13:01:06;1.67;;;1.58;;
16099;SDS011;8154;50.830;12.082;2023-04-26T13:03:34;1.50;;;1.40;;
16099;SDS011;8154;50.830;12.082;2023-04-26T13:06:01;1.50;;;1.40;;
16099;SDS011;8154;50.830;12.082;2023-04-26T13:08:27;1.40;;;1.30;;
16099;SDS011;8154;50.830;12.082;2023-04-26T13:10:54;1.70;;;1.60;;
16099;SDS011;8154;50.830;12.082;2023-04-26T13:13:21;1.50;;;1.40;;
16099;SDS011;8154;50.830;12.082;2023-04-26T13:15:47;1.50;;;1.40;;
16099;SDS011;8154;50.830;12.082;2023-04-26T13:18:13;1.40;;;1.30;;
16099;SDS011;8154;50.830;12.082;2023-04-26T13:20:41;1.50;;;1.40;;
16099;SDS011;8154;50.830;12.082;2023-04-26T13:23:07;1.60;;;1.50;;
16099;SDS011;8154;50.830;12.082;2023-04-26T13:25:35;1.60;;;1.50;;
16099;SDS011;8154;50.830;12.082;2023-04-26T13:28:01;1.50;;;1.40;;
16099;SDS011;8154;50.830;12.082;2023-04-26T13:30:28;1.80;;;1.55;;
16099;SDS011;8154;50.830;12.082;2023-04-26T13:32:54;1.75;;;1.65;;
16099;SDS011;8154;50.830;12.082;2023-04-26T13:35:20;1.60;;;1.50;;
16099;SDS011;8154;50.830;12.082;2023-04-26T13:37:47;1.60;;;1.50;;
16099;SDS011;8154;50.830;12.082;2023-04-26T13:40:14;4.00;;;1.95;;
16099;SDS011;8154;50.830;12.082;2023-04-26T13:42:41;6.28;;;1.95;;
16099;SDS011;8154;50.830;12.082;2023-04-26T13:45:08;4.50;;;1.70;;
16099;SDS011;8154;50.830;12.082;2023-04-26T13:47:37;7.10;;;2.15;;
16099;SDS011;8154;50.830;12.082;2023-04-26T13:50:19;4.18;;;2.00;;
16099;SDS011;8154;50.830;12.082;2023-04-26T13:52:45;7.22;;;2.13;;
16099;SDS011;8154;50.830;12.082;2023-04-26T13:55:11;3.88;;;2.00;;
16099;SDS011;8154;50.830;12.082;2023-04-26T13:57:38;4.70;;;1.90;;
16099;SDS011;8154;50.830;12.082;2023-04-26T14:00:04;8.00;;;3.55;;
16099;SDS011;8154;50.830;12.082;2023-04-26T14:02:32;10.32;;;7.20;;
16099;SDS011;8154;50.830;12.082;2023-04-26T14:04:58;12.27;;;11.00;;
16099;SDS011;8154;50.830;12.082;2023-04-26T14:07:24;17.33;;;12.13;;
16099;SDS011;8154;50.830;12.082;2023-04-26T14:09:51;11.38;;;9.20;;
16099;SDS011;8154;50.830;12.082;2023-04-26T14:12:19;10.57;;;8.15;;
16099;SDS011;8154;50.830;12.082;2023-04-26T14:14:46;9.32;;;7.53;;
16099;SDS011;8154;50.830;12.082;2023-04-26T14:20:13;8.50;;;6.00;;
16099;SDS011;8154;50.830;12.082;2023-04-26T14:22:40;7.90;;;5.90;;
16099;SDS011;8154;50.830;12.082;2023-04-26T14:25:23;6.70;;;4.80;;
16099;SDS011;8154;50.830;12.082;2023-04-26T14:27:51;5.63;;;4.25;;
16099;SDS011;8154;50.830;12.082;2023-04-26T14:30:24;4.57;;;3.95;;
16099;SDS011;8154;50.830;12.082;2023-04-26T14:32:51;5.43;;;3.80;;
16099;SDS011;8154;50.830;12.082;2023-04-26T14:35:38;4.72;;;3.35;;
16099;SDS011;8154;50.830;12.082;2023-04-26T14:38:05;4.63;;;3.05;;
16099;SDS011;8154;50.830;12.082;2023-04-26T14:40:31;4.82;;;3.28;;
16099;SDS011;8154;50.830;12.082;2023-04-26T14:42:58;3.10;;;2.50;;
16099;SDS011;8154;50.830;12.082;2023-04-26T14:45:24;4.28;;;2.72;;
16099;SDS011;8154;50.830;12.082;2023-04-26T14:47:50;3.85;;;2.53;;
16099;SDS011;8154;50.830;12.082;2023-04-26T14:50:16;5.55;;;2.55;;
16099;SDS011;8154;50.830;12.082;2023-04-26T14:52:45;4.45;;;2.55;;
16099;SDS011;8154;50.830;12.082;2023-04-26T14:55:15;2.85;;;2.22;;
16099;SDS011;8154;50.830;12.082;2023-04-26T14:57:48;3.17;;;2.00;;
16099;SDS011;8154;50.830;12.082;2023-04-26T15:00:15;6.00;;;2.42;;
16099;SDS011;8154;50.830;12.082;2023-04-26T15:02:43;6.75;;;2.40;;
16099;SDS011;8154;50.830;12.082;2023-04-26T15:05:10;3.50;;;2.10;;
16099;SDS011;8154;50.830;12.082;2023-04-26T15:07:39;3.83;;;2.25;;
16099;SDS011;8154;50.830;12.082;2023-04-26T15:10:05;4.50;;;2.20;;
16099;SDS011;8154;50.830;12.082;2023-04-26T15:12:35;3.47;;;2.10;;
16099;SDS011;8154;50.830;12.082;2023-04-26T15:15:03;4.70;;;2.30;;
16099;SDS011;8154;50.830;12.082;2023-04-26T15:20:19;5.30;;;2.30;;
16099;SDS011;8154;50.830;12.082;2023-04-26T15:22:45;3.88;;;2.22;;
16099;SDS011;8154;50.830;12.082;2023-04-26T15:25:11;3.50;;;2.20;;
16099;SDS011;8154;50.830;12.082;2023-04-26T15:27:38;3.95;;;2.50;;
16099;SDS011;8154;50.830;12.082;2023-04-26T15:30:04;3.28;;;2.20;;
16099;SDS011;8154;50.830;12.082;2023-04-26T15:32:35;4.63;;;2.28;;
16099;SDS011;8154;50.830;12.082;2023-04-26T15:35:04;2.85;;;2.10;;
16099;SDS011;8154;50.830;12.082;2023-04-26T15:37:35;3.83;;;2.20;;
16099;SDS011;8154;50.830;12.082;2023-04-26T15:40:02;2.30;;;2.10;;
16099;SDS011;8154;50.830;12.082;2023-04-26T15:42:31;3.13;;;2.08;;
16099;SDS011;8154;50.830;12.082;2023-04-26T15:44:57;2.83;;;2.13;;
16099;SDS011;8154;50.830;12.082;2023-04-26T15:47:24;2.72;;;2.10;;
16099;SDS011;8154;50.830;12.082;2023-04-26T15:49:50;2.50;;;2.03;;
16099;SDS011;8154;50.830;12.082;2023-04-26T15:52:16;3.10;;;2.10;;
16099;SDS011;8154;50.830;12.082;2023-04-26T15:54:43;2.85;;;1.98;;
16099;SDS011;8154;50.830;12.082;2023-04-26T15:57:10;2.42;;;1.90;;
16099;SDS011;8154;50.830;12.082;2023-04-26T15:59:35;2.63;;;2.00;;
16099;SDS011;8154;50.830;12.082;2023-04-26T16:02:02;3.08;;;2.00;;
16099;SDS011;8154;50.830;12.082;2023-04-26T16:07:25;3.25;;;2.00;;
16099;SDS011;8154;50.830;12.082;2023-04-26T16:09:51;3.10;;;2.10;;
16099;SDS011;8154;50.830;12.082;2023-04-26T16:12:27;2.20;;;2.00;;
16099;SDS011;8154;50.830;12.082;2023-04-26T16:14:53;4.80;;;1.90;;
16099;SDS011;8154;50.830;12.082;2023-04-26T16:17:19;2.92;;;2.05;;
16099;SDS011;8154;50.830;12.082;2023-04-26T18:20:31;4.57;;;1.80;;
16099;SDS011;8154;50.830;12.082;2023-04-26T18:22:57;10.68;;;2.00;;
16099;SDS011;8154;50.830;12.082;2023-04-26T18:25:27;8.05;;;1.80;;
16099;SDS011;8154;50.830;12.082;2023-04-26T18:27:54;2.10;;;1.77;;
16099;SDS011;8154;50.830;12.082;2023-04-26T18:30:22;2.97;;;1.90;;
16099;SDS011;8154;50.830;12.082;2023-04-26T18:32:50;3.72;;;1.90;;
16099;SDS011;8154;50.830;12.082;2023-04-26T18:35:21;3.08;;;2.00;;
16099;SDS011;8154;50.830;12.082;2023-04-26T18:37:47;4.57;;;1.90;;
16099;SDS011;8154;50.830;12.082;2023-04-26T18:40:13;6.03;;;1.90;;
16099;SDS011;8154;50.830;12.082;2023-04-26T18:42:39;5.80;;;1.95;;
16099;SDS011;8154;50.830;12.082;2023-04-26T18:45:08;3.85;;;1.85;;
16099;SDS011;8154;50.830;12.082;2023-04-26T18:47:34;4.38;;;1.90;;
16099;SDS011;8154;50.830;12.082;2023-04-26T18:50:01;3.72;;;1.80;;
16099;SDS011;8154;50.830;12.082;2023-04-26T18:52:31;3.67;;;1.75;;
16099;SDS011;8154;50.830;12.082;2023-04-26T18:54:57;4.00;;;1.80;;
16099;SDS011;8154;50.830;12.082;2023-04-26T18:57:26;4.57;;;1.75;;
16099;SDS011;8154;50.830;12.082;2023-04-26T18:59:52;5.75;;;1.73;;
16099;SDS011;8154;50.830;12.082;2023-04-26T19:02:22;2.38;;;1.67;;
16099;SDS011;8154;50.830;12.082;2023-04-26T19:04:48;2.42;;;1.80;;
16099;SDS011;8154;50.830;12.082;2023-04-26T19:07:15;3.55;;;1.70;;
16099;SDS011;8154;50.830;12.082;2023-04-26T19:09:42;3.85;;;1.77;;
16099;SDS011;8154;50.830;12.082;2023-04-26T19:12:09;3.92;;;1.60;;
16099;SDS011;8154;50.830;12.082;2023-04-26T19:14:35;2.25;;;1.70;;
16099;SDS011;8154;50.830;12.082;2023-04-26T19:17:02;4.20;;;1.83;;
16099;SDS011;8154;50.830;12.082;2023-04-26T19:19:29;3.13;;;1.80;;
16099;SDS011;8154;50.830;12.082;2023-04-26T19:21:55;2.53;;;1.77;;
16099;SDS011;8154;50.830;12.082;2023-04-26T19:24:25;3.80;;;1.90;;
16099;SDS011;8154;50.830;12.082;2023-04-26T19:26:52;4.03;;;2.20;;
16099;SDS011;8154;50.830;12.082;2023-04-26T19:29:19;5.63;;;2.47;;
16099;SDS011;8154;50.830;12.082;2023-04-26T19:31:47;3.95;;;2.40;;
16099;SDS011;8154;50.830;12.082;2023-04-26T19:34:14;4.78;;;2.60;;
16099;SDS011;8154;50.830;12.082;2023-04-26T19:36:41;5.47;;;2.65;;
16099;SDS011;8154;50.830;12.082;2023-04-26T19:39:08;4.40;;;2.80;;
16099;SDS011;8154;50.830;12.082;2023-04-26T19:41:34;5.55;;;3.00;;
16099;SDS011;8154;50.830;12.082;2023-04-26T19:44:02;7.47;;;3.65;;
16099;SDS011;8154;50.830;12.082;2023-04-26T19:46:28;8.18;;;3.67;;
16099;SDS011;8154;50.830;12.082;2023-04-26T19:48:57;7.55;;;3.45;;
16099;SDS011;8154;50.830;12.082;2023-04-26T19:51:24;5.68;;;2.92;;
16099;SDS011;8154;50.830;12.082;2023-04-26T19:53:50;6.38;;;3.20;;
16099;SDS011;8154;50.830;12.082;2023-04-26T19:56:17;5.65;;;3.15;;
16099;SDS011;8154;50.830;12.082;2023-04-26T19:58:46;5.82;;;3.03;;
16099;SDS011;8154;50.830;12.082;2023-04-26T20:01:13;4.75;;;2.97;;
16099;SDS011;8154;50.830;12.082;2023-04-26T20:03:39;7.72;;;3.45;;
16099;SDS011;8154;50.830;12.082;2023-04-26T20:06:07;7.38;;;3.03;;
16099;SDS011;8154;50.830;12.082;2023-04-26T20:08:35;5.40;;;3.05;;
16099;SDS011;8154;50.830;12.082;2023-04-26T20:11:01;6.05;;;3.00;;
16099;SDS011;8154;50.830;12.082;2023-04-26T20:13:33;6.00;;;2.85;;
16099;SDS011;8154;50.830;12.082;2023-04-26T20:15:59;6.85;;;2.92;;
16099;SDS011;8154;50.830;12.082;2023-04-26T20:18:26;5.75;;;2.90;;
16099;SDS011;8154;50.830;12.082;2023-04-26T20:20:53;4.07;;;2.60;;
16099;SDS011;8154;50.830;12.082;2023-04-26T22:26:06;11.13;;;2.55;;
16099;SDS011;8154;50.830;12.082;2023-04-26T22:28:32;6.45;;;2.35;;
16099;SDS011;8154;50.830;12.082;2023-04-26T22:30:58;5.72;;;2.20;;
16099;SDS011;8154;50.830;12.082;2023-04-26T22:33:24;7.03;;;2.30;;
16099;SDS011;8154;50.830;12.082;2023-04-26T22:35:51;3.40;;;2.13;;
16099;SDS011;8154;50.830;12.082;2023-04-26T22:38:23;6.10;;;2.30;;
16099;SDS011;8154;50.830;12.082;2023-04-26T22:40:49;6.72;;;2.15;;
16099;SDS011;8154;50.830;12.082;2023-04-26T22:43:16;3.38;;;2.20;;
16099;SDS011;8154;50.830;12.082;2023-04-26T22:45:43;2.78;;;1.90;;
16099;SDS011;8154;50.830;12.082;2023-04-26T22:48:09;4.63;;;2.00;;
16099;SDS011;8154;50.830;12.082;2023-04-26T22:50:35;2.85;;;1.80;;
16099;SDS011;8154;50.830;12.082;2023-04-26T22:53:01;4.43;;;2.08;;
16099;SDS011;8154;50.830;12.082;2023-04-26T22:55:28;3.30;;;2.10;;
16099;SDS011;8154;50.830;12.082;2023-04-26T22:57:54;4.35;;;1.90;;
16099;SDS011;8154;50.830;12.082;2023-04-26T23:00:20;2.83;;;2.08;;
16099;SDS011;8154;50.830;12.082;2023-04-26T23:02:47;3.55;;;2.00;;
16099;SDS011;8154;50.830;12.082;2023-04-26T23:05:15;4.90;;;2.03;;
16099;SDS011;8154;50.830;12.082;2023-04-26T23:07:42;4.70;;;2.10;;
16099;SDS011;8154;50.830;12.082;2023-04-26T23:10:08;2.00;;;1.80;;
16099;SDS011;8154;50.830;12.082;2023-04-26T23:12:34;3.35;;;1.73;;
16099;SDS011;8154;50.830;12.082;2023-04-26T23:15:00;2.40;;;1.85;;
16099;SDS011;8154;50.830;12.082;2023-04-26T23:17:28;2.72;;;1.90;;
16099;SDS011;8154;50.830;12.082;2023-04-26T23:19:56;2.75;;;2.00;;
16099;SDS011;8154;50.830;12.082;2023-04-26T23:22:25;2.25;;;1.80;;
